createdAt,value
2019-05-12T00:00:18.233Z,63.76
2019-05-12T00:03:05.157Z,64.15
2019-05-12T00:05:52.307Z,64.73
2019-05-12T00:08:39.706Z,64.91
2019-05-12T00:11:28.724Z,64.74
2019-05-12T00:14:17.797Z,65.06
2019-05-12T00:17:08.235Z,64.49
2019-05-12T00:19:58.363Z,64.89
2019-05-12T00:22:48.855Z,65.12
2019-05-12T00:25:38.682Z,64.99
2019-05-12T00:28:25.506Z,64.78
2019-05-12T00:31:13.261Z,65.27
2019-05-12T00:34:01.018Z,65.16
2019-05-12T00:36:48.673Z,65.45
2019-05-12T00:39:38.222Z,65.26
2019-05-12T00:42:25.315Z,65.47
2019-05-12T00:45:13.458Z,65.08
2019-05-12T00:48:00.946Z,65.51
2019-05-12T00:50:48.752Z,65.54
2019-05-12T00:53:40.155Z,65.64
2019-05-12T00:56:25.179Z,65.77
2019-05-12T00:59:13.314Z,65.45
2019-05-12T01:02:00.526Z,65.69
2019-05-12T01:04:48.728Z,65.44
2019-05-12T01:07:38.211Z,65.26
2019-05-12T01:10:28.589Z,65.17
2019-05-12T01:13:15.165Z,63.83
2019-05-12T01:16:02.630Z,64.74
2019-05-12T01:18:50.245Z,62.91
2019-05-12T01:21:37.954Z,62.39
2019-05-12T01:24:27.966Z,63.57
2019-05-12T01:27:14.472Z,63.69
2019-05-12T01:30:01.508Z,63.61
2019-05-12T01:32:48.512Z,62.28
2019-05-12T01:35:38.333Z,62.46
2019-05-12T01:38:25.196Z,60.97
2019-05-12T01:41:12.603Z,60.37
2019-05-12T01:44:00.148Z,59.63
2019-05-12T01:46:48.357Z,59.95
2019-05-12T01:49:38.246Z,59.52
2019-05-12T01:52:24.919Z,58.75
2019-05-12T01:55:12.144Z,59.20
2019-05-12T01:57:59.422Z,58.87
2019-05-12T02:00:48.254Z,59.60
2019-05-12T02:03:37.673Z,58.12
2019-05-12T02:06:27.680Z,58.41
2019-05-12T02:09:18.552Z,59.55
2019-05-12T02:12:08.115Z,59.50
2019-05-12T02:14:55.007Z,59.78
2019-05-12T02:17:42.356Z,59.18
2019-05-12T02:20:30.081Z,58.56
2019-05-12T02:23:17.930Z,59.07
2019-05-12T02:26:08.083Z,58.83
2019-05-12T02:28:54.620Z,59.64
2019-05-12T02:31:42.373Z,59.32
2019-05-12T02:34:29.804Z,59.51
2019-05-12T02:37:16.849Z,59.21
2019-05-12T02:40:05.695Z,59.19
2019-05-12T02:42:55.097Z,59.28
2019-05-12T02:45:44.696Z,58.69
2019-05-12T02:48:35.460Z,58.81
2019-05-12T02:51:24.582Z,58.29
2019-05-12T02:54:10.793Z,57.92
2019-05-12T02:56:58.513Z,58.45
2019-05-12T02:59:47.406Z,59.14
2019-05-12T03:02:36.345Z,58.55
2019-05-12T03:05:24.962Z,57.39
2019-05-12T03:08:15.496Z,57.25
2019-05-12T03:11:06.011Z,57.11
2019-05-12T03:13:54.912Z,57.50
2019-05-12T03:16:45.207Z,56.49
2019-05-12T03:19:34.413Z,57.29
2019-05-12T03:22:20.748Z,57.17
2019-05-12T03:25:20.009Z,57.47
2019-05-12T03:27:56.912Z,57.61
2019-05-12T03:30:48.713Z,56.46
2019-05-12T03:33:41.587Z,57.19
2019-05-12T03:36:32.300Z,57.40
2019-05-12T03:39:14.727Z,56.43
2019-05-12T03:42:00.955Z,57.15
2019-05-12T03:44:48.488Z,56.33
2019-05-12T03:47:35.963Z,56.83
2019-05-12T03:50:24.314Z,56.65
2019-05-12T03:53:15.634Z,57.90
2019-05-12T03:56:04.143Z,58.34
2019-05-12T03:58:50.278Z,56.77
2019-05-12T04:01:37.773Z,57.10
2019-05-12T04:04:25.398Z,57.33
2019-05-12T04:07:15.264Z,57.82
2019-05-12T04:10:04.860Z,57.20
2019-05-12T04:12:51.300Z,58.04
2019-05-12T04:15:39.033Z,57.96
2019-05-12T04:18:26.087Z,57.75
2019-05-12T04:21:15.621Z,57.91
2019-05-12T04:24:05.318Z,58.91
2019-05-12T04:26:54.930Z,57.70
2019-05-12T04:29:44.040Z,58.97
2019-05-12T04:32:30.116Z,58.74
2019-05-12T04:35:17.455Z,58.99
2019-05-12T04:38:05.712Z,59.88
2019-05-12T04:40:55.347Z,59.35
2019-05-12T04:43:44.916Z,60.47
2019-05-12T04:46:34.611Z,58.98
2019-05-12T04:49:24.984Z,58.98
2019-05-12T04:52:11.513Z,59.70
2019-05-12T04:54:58.663Z,58.90
2019-05-12T04:57:46.388Z,59.16
2019-05-12T05:00:35.220Z,59.20
2019-05-12T05:03:24.699Z,59.51
2019-05-12T05:06:14.992Z,57.83
2019-05-12T05:09:04.911Z,53.99
2019-05-12T05:11:54.148Z,50.63
2019-05-12T05:14:41.315Z,49.14
2019-05-12T05:17:29.777Z,48.90
2019-05-12T05:20:16.982Z,50.28
2019-05-12T05:23:04.693Z,51.54
2019-05-12T05:25:55.743Z,53.06
2019-05-12T05:28:47.365Z,53.13
2019-05-12T05:31:34.776Z,53.01
2019-05-12T05:34:26.146Z,50.77
2019-05-12T05:37:14.540Z,50.41
2019-05-12T05:40:03.972Z,47.25
2019-05-12T05:42:51.483Z,44.26
2019-05-12T05:45:39.305Z,40.50
2019-05-12T05:48:27.001Z,39.11
2019-05-12T05:51:16.418Z,39.62
2019-05-12T05:54:05.573Z,41.69
2019-05-12T05:56:59.688Z,42.30
2019-05-12T05:59:44.690Z,39.10
2019-05-12T06:02:39.936Z,38.14
2019-05-12T06:05:26.306Z,36.92
2019-05-12T06:08:16.298Z,38.19
2019-05-12T06:11:00.368Z,38.91
2019-05-12T06:13:48.268Z,39.37
2019-05-12T06:16:36.414Z,36.78
2019-05-12T06:19:26.256Z,36.03
2019-05-12T06:22:20.351Z,35.53
2019-05-12T06:25:08.077Z,32.91
2019-05-12T06:28:00.104Z,33.85
2019-05-12T06:30:47.622Z,33.54
2019-05-12T06:33:36.199Z,34.93
2019-05-12T06:36:27.109Z,36.29
2019-05-12T06:39:19.075Z,38.47
2019-05-12T06:42:08.660Z,39.64
2019-05-12T06:44:55.129Z,38.71
2019-05-12T06:47:44.412Z,38.90
2019-05-12T06:50:39.190Z,36.34
2019-05-12T06:53:30.769Z,36.47
2019-05-12T06:56:19.489Z,39.17
2019-05-12T06:59:09.397Z,42.16
2019-05-12T07:01:58.769Z,42.51
2019-05-12T07:04:46.168Z,43.67
2019-05-12T07:07:33.443Z,44.27
2019-05-12T07:10:36.911Z,45.17
2019-05-12T07:13:14.718Z,45.38
2019-05-12T07:16:16.672Z,46.36
2019-05-12T07:19:07.697Z,45.55
2019-05-12T07:21:58.260Z,46.78
2019-05-12T07:24:50.202Z,45.48
2019-05-12T07:27:38.723Z,44.36
2019-05-12T07:30:31.718Z,44.64
2019-05-12T07:33:17.189Z,45.03
2019-05-12T07:36:06.436Z,42.19
2019-05-12T07:38:55.899Z,42.12
2019-05-12T07:41:51.015Z,42.88
2019-05-12T07:44:40.266Z,43.99
2019-05-12T07:47:29.208Z,43.24
2019-05-12T07:50:16.320Z,43.87
2019-05-12T07:53:04.242Z,43.46
2019-05-12T07:55:53.804Z,43.81
2019-05-12T07:58:46.348Z,42.91
2019-05-12T08:01:30.250Z,43.47
2019-05-12T08:04:17.718Z,43.71
2019-05-12T08:07:07.576Z,44.17
2019-05-12T08:09:54.584Z,44.78
2019-05-12T08:12:44.283Z,43.91
2019-05-12T08:15:33.707Z,45.82
2019-05-12T08:18:21.641Z,46.42
2019-05-12T08:21:09.476Z,45.55
2019-05-12T08:23:56.748Z,45.23
2019-05-12T08:26:44.152Z,45.96
2019-05-12T08:29:34.482Z,43.59
2019-05-12T08:32:23.400Z,40.72
2019-05-12T08:35:13.953Z,40.78
2019-05-12T08:38:03.642Z,42.04
2019-05-12T08:40:51.249Z,41.17
2019-05-12T08:43:40.484Z,39.97
2019-05-12T08:46:28.745Z,38.05
2019-05-12T08:49:16.438Z,38.77
2019-05-12T08:52:04.344Z,37.71
2019-05-12T08:54:53.637Z,38.79
2019-05-12T08:57:46.479Z,35.62
2019-05-12T09:00:39.507Z,34.97
2019-05-12T09:03:27.261Z,37.48
2019-05-12T09:06:15.445Z,37.92
2019-05-12T09:09:05.384Z,38.23
2019-05-12T09:11:54.173Z,36.07
2019-05-12T09:14:46.317Z,35.43
2019-05-12T09:17:30.844Z,35.51
2019-05-12T09:20:18.472Z,32.76
2019-05-12T09:23:05.841Z,33.80
2019-05-12T09:25:54.459Z,35.82
2019-05-12T09:28:49.305Z,35.34
2019-05-12T09:31:33.397Z,34.45
2019-05-12T09:34:20.551Z,34.82
2019-05-12T09:37:08.006Z,34.71
2019-05-12T09:39:56.249Z,33.97
2019-05-12T09:42:48.043Z,32.22
2019-05-12T09:45:40.265Z,31.77
2019-05-12T09:48:25.512Z,32.68
2019-05-12T09:51:14.384Z,31.46
2019-05-12T09:54:01.985Z,31.14
2019-05-12T09:56:54.253Z,31.35
2019-05-12T09:59:38.878Z,32.07
2019-05-12T10:02:27.028Z,32.59
2019-05-12T10:05:14.725Z,32.26
2019-05-12T10:08:04.566Z,32.59
2019-05-12T10:10:53.429Z,32.38
2019-05-12T10:13:41.802Z,33.53
2019-05-12T10:16:29.466Z,33.81
2019-05-12T10:19:17.593Z,35.09
2019-05-12T10:22:05.791Z,35.35
2019-05-12T10:24:58.319Z,37.75
2019-05-12T10:27:44.255Z,35.57
2019-05-12T10:30:31.136Z,34.86
2019-05-12T10:33:18.256Z,35.13
2019-05-12T10:36:08.565Z,35.33
2019-05-12T10:38:55.266Z,31.95
2019-05-12T10:41:43.805Z,33.41
2019-05-12T10:44:39.247Z,34.00
2019-05-12T10:47:21.108Z,34.87
2019-05-12T10:50:09.867Z,32.79
2019-05-12T10:52:57.646Z,33.49
2019-05-12T10:55:44.991Z,34.27
2019-05-12T10:58:33.625Z,34.71
2019-05-12T11:01:21.042Z,34.62
2019-05-12T11:04:08.419Z,31.91
2019-05-12T11:06:55.832Z,31.58
2019-05-12T11:09:43.929Z,31.46
2019-05-12T11:12:33.357Z,32.71
2019-05-12T11:15:21.485Z,32.06
2019-05-12T11:18:20.672Z,31.88
2019-05-12T11:21:05.777Z,32.34
2019-05-12T11:23:54.337Z,33.33
2019-05-12T11:26:43.239Z,33.21
2019-05-12T11:29:44.852Z,30.81
2019-05-12T11:32:19.808Z,32.08
2019-05-12T11:35:07.346Z,32.10
2019-05-12T11:37:54.779Z,31.78
2019-05-12T11:40:43.801Z,32.60
2019-05-12T11:43:33.732Z,33.11
2019-05-12T11:46:23.603Z,32.94
2019-05-12T11:49:10.088Z,33.95
2019-05-12T11:52:00.994Z,34.47
2019-05-12T11:54:51.161Z,35.02
2019-05-12T11:57:38.686Z,33.62
2019-05-12T12:00:28.632Z,32.05
2019-05-12T12:03:18.229Z,32.80
2019-05-12T12:06:05.305Z,33.09
2019-05-12T12:08:53.726Z,32.31
2019-05-12T12:11:43.356Z,32.67
2019-05-12T12:14:31.864Z,32.47
2019-05-12T12:17:25.458Z,31.86
2019-05-12T12:20:13.985Z,32.20
2019-05-12T12:23:00.206Z,31.16
2019-05-12T12:25:48.707Z,29.98
2019-05-12T12:28:37.275Z,30.91
2019-05-12T12:31:29.624Z,31.39
2019-05-12T12:34:15.585Z,31.53
2019-05-12T12:37:03.493Z,32.43
2019-05-12T12:39:50.561Z,34.41
2019-05-12T12:42:44.221Z,34.02
2019-05-12T12:45:36.837Z,33.27
2019-05-12T12:48:25.506Z,33.73
2019-05-12T12:51:10.580Z,31.45
2019-05-12T12:53:58.772Z,31.40
2019-05-12T12:56:46.807Z,32.64
2019-05-12T12:59:34.477Z,32.73
2019-05-12T13:02:24.534Z,32.21
2019-05-12T13:05:13.480Z,33.10
2019-05-12T13:08:00.398Z,33.66
2019-05-12T13:10:51.342Z,33.19
2019-05-12T13:13:37.733Z,31.63
2019-05-12T13:16:25.384Z,32.78
2019-05-12T13:19:16.902Z,32.43
2019-05-12T13:22:03.714Z,33.20
2019-05-12T13:24:53.047Z,32.43
2019-05-12T13:27:39.812Z,32.98
2019-05-12T13:30:27.324Z,32.92
2019-05-12T13:33:18.090Z,33.92
2019-05-12T13:36:04.305Z,33.21
2019-05-12T13:38:52.529Z,32.94
2019-05-12T13:41:39.856Z,32.51
2019-05-12T13:44:30.457Z,32.30
2019-05-12T13:47:16.220Z,31.72
2019-05-12T13:50:04.200Z,32.20
2019-05-12T13:52:54.049Z,32.38
2019-05-12T13:55:47.532Z,33.33
2019-05-12T13:58:34.541Z,33.97
2019-05-12T14:01:20.420Z,31.96
2019-05-12T14:04:08.408Z,32.01
2019-05-12T14:06:55.608Z,32.91
2019-05-12T14:09:43.683Z,31.43
2019-05-12T14:12:31.468Z,31.56
2019-05-12T14:15:19.508Z,31.74
2019-05-12T14:18:15.686Z,32.82
2019-05-12T14:21:00.518Z,32.95
2019-05-12T14:23:48.272Z,31.68
2019-05-12T14:26:39.278Z,32.37
2019-05-12T14:29:26.507Z,32.78
2019-05-12T14:32:17.289Z,33.28
2019-05-12T14:35:04.307Z,33.21
2019-05-12T14:37:53.741Z,32.78
2019-05-12T14:40:41.022Z,33.34
2019-05-12T14:43:28.418Z,33.73
2019-05-12T14:46:15.944Z,33.03
2019-05-12T14:49:03.712Z,33.14
2019-05-12T14:51:54.422Z,33.69
2019-05-12T14:54:43.554Z,34.90
2019-05-12T14:57:37.375Z,36.12
2019-05-12T15:00:21.896Z,35.45
2019-05-12T15:03:13.045Z,35.86
2019-05-12T15:05:57.952Z,36.18
2019-05-12T15:08:45.381Z,37.16
2019-05-12T15:11:34.138Z,37.75
2019-05-12T15:14:24.662Z,37.32
2019-05-12T15:17:13.715Z,36.74
2019-05-12T15:20:06.614Z,36.82
2019-05-12T15:22:51.484Z,38.45
2019-05-12T15:25:39.089Z,39.83
2019-05-12T15:28:26.403Z,40.06
2019-05-12T15:31:14.492Z,39.93
2019-05-12T15:34:03.575Z,39.99
2019-05-12T15:36:53.816Z,38.79
2019-05-12T15:39:40.753Z,38.47
2019-05-12T15:42:28.441Z,39.35
2019-05-12T15:45:16.728Z,40.40
2019-05-12T15:48:04.542Z,40.10
2019-05-12T15:50:54.024Z,41.16
2019-05-12T15:53:44.403Z,39.79
2019-05-12T15:56:30.613Z,39.97
2019-05-12T15:59:18.231Z,40.71
2019-05-12T16:02:12.473Z,39.29
2019-05-12T16:04:55.237Z,39.95
2019-05-12T16:07:43.623Z,39.74
2019-05-12T16:10:31.593Z,39.47
2019-05-12T16:13:19.040Z,39.50
2019-05-12T16:16:07.018Z,39.60
2019-05-12T16:18:54.114Z,39.11
2019-05-12T16:21:45.368Z,39.99
2019-05-12T16:24:31.205Z,40.41
2019-05-12T16:27:18.945Z,41.24
2019-05-12T16:30:07.185Z,40.95
2019-05-12T16:32:55.168Z,40.99
2019-05-12T16:35:44.139Z,40.79
2019-05-12T16:38:31.810Z,40.68
2019-05-12T16:41:28.121Z,40.40
2019-05-12T16:44:20.817Z,40.87
2019-05-12T16:46:58.309Z,40.44
2019-05-12T16:49:45.869Z,41.30
2019-05-12T16:52:40.508Z,41.21
2019-05-12T16:55:24.198Z,40.59
2019-05-12T16:58:13.416Z,40.96
2019-05-12T17:01:00.667Z,40.84
2019-05-12T17:03:48.712Z,40.38
2019-05-12T17:06:38.606Z,40.88
2019-05-12T17:09:25.898Z,41.44
2019-05-12T17:12:14.746Z,41.35
2019-05-12T17:15:04.029Z,40.68
2019-05-12T17:17:58.533Z,41.17
2019-05-12T17:20:45.859Z,41.68
2019-05-12T17:23:29.851Z,41.02
2019-05-12T17:26:17.522Z,41.72
2019-05-12T17:29:05.042Z,42.35
2019-05-12T17:31:53.582Z,42.57
2019-05-12T17:34:45.658Z,43.21
2019-05-12T17:37:31.294Z,43.49
2019-05-12T17:40:24.266Z,43.16
2019-05-12T17:43:12.236Z,43.08
2019-05-12T17:46:01.951Z,43.48
2019-05-12T17:48:49.660Z,43.40
2019-05-12T17:51:36.953Z,43.22
2019-05-12T17:54:26.570Z,43.77
2019-05-12T17:57:18.050Z,43.83
2019-05-12T18:00:06.291Z,44.18
2019-05-12T18:02:56.241Z,43.93
2019-05-12T18:05:47.811Z,43.92
2019-05-12T18:08:35.672Z,44.62
2019-05-12T18:11:20.295Z,45.30
2019-05-12T18:14:08.373Z,45.12
2019-05-12T18:17:02.816Z,45.27
2019-05-12T18:19:50.323Z,45.08
2019-05-12T18:22:39.329Z,45.57
2019-05-12T18:25:30.301Z,45.44
2019-05-12T18:28:13.976Z,45.98
2019-05-12T18:31:04.296Z,46.22
2019-05-12T18:33:56.124Z,46.37
2019-05-12T18:36:40.456Z,46.39
2019-05-12T18:39:28.131Z,46.22
2019-05-12T18:42:15.729Z,46.74
2019-05-12T18:45:12.278Z,45.71
2019-05-12T18:47:53.925Z,46.40
2019-05-12T18:50:44.049Z,46.60
2019-05-12T18:53:31.937Z,46.53
2019-05-12T18:56:21.774Z,47.43
2019-05-12T18:59:15.585Z,47.12
2019-05-12T19:01:57.833Z,46.74
2019-05-12T19:04:45.269Z,46.84
2019-05-12T19:07:39.614Z,46.79
2019-05-12T19:10:24.059Z,47.18
2019-05-12T19:13:11.711Z,47.86
2019-05-12T19:16:06.225Z,47.92
2019-05-12T19:18:48.156Z,49.45
2019-05-12T19:21:37.617Z,48.76
2019-05-12T19:24:25.062Z,48.39
2019-05-12T19:27:18.976Z,49.07
2019-05-12T19:30:04.261Z,48.65
2019-05-12T19:32:54.538Z,49.39
2019-05-12T19:35:40.485Z,49.95
2019-05-12T19:38:28.522Z,50.53
2019-05-12T19:41:18.044Z,49.12
2019-05-12T19:44:05.721Z,49.47
2019-05-12T19:46:54.001Z,50.15
2019-05-12T19:49:50.715Z,50.21
2019-05-12T19:52:37.789Z,49.79
2019-05-12T19:55:25.455Z,50.03
2019-05-12T19:58:13.001Z,50.31
2019-05-12T20:01:00.716Z,50.30
2019-05-12T20:03:50.060Z,51.04
2019-05-12T20:06:37.467Z,50.45
2019-05-12T20:09:26.102Z,50.44
2019-05-12T20:12:18.678Z,50.75
2019-05-12T20:15:03.999Z,50.83
2019-05-12T20:17:53.574Z,51.09
2019-05-12T20:20:44.401Z,51.55
2019-05-12T20:23:30.365Z,51.50
2019-05-12T20:26:20.761Z,51.44
2019-05-12T20:29:13.680Z,52.06
2019-05-12T20:32:00.728Z,52.46
2019-05-12T20:34:52.076Z,52.19
2019-05-12T20:37:44.222Z,51.17
2019-05-12T20:40:32.130Z,51.68
2019-05-12T20:43:24.052Z,51.46
2019-05-12T20:46:15.820Z,52.58
2019-05-12T20:49:01.200Z,53.28
2019-05-12T20:51:48.366Z,52.15
2019-05-12T20:54:36.085Z,51.31
2019-05-12T20:57:23.794Z,51.97
2019-05-12T21:00:24.251Z,51.80
2019-05-12T21:03:09.542Z,51.67
2019-05-12T21:06:01.437Z,52.07
2019-05-12T21:08:53.872Z,52.39
2019-05-12T21:11:36.053Z,52.42
2019-05-12T21:14:24.098Z,52.26
2019-05-12T21:17:15.788Z,53.03
2019-05-12T21:20:01.255Z,53.20
2019-05-12T21:23:04.494Z,53.32
2019-05-12T21:25:58.145Z,53.29
2019-05-12T21:28:48.239Z,53.66
2019-05-12T21:31:34.589Z,54.30
2019-05-12T21:34:23.347Z,54.32
2019-05-12T21:37:13.934Z,53.81
2019-05-12T21:40:03.635Z,53.63
2019-05-12T21:42:54.657Z,54.47
2019-05-12T21:45:43.419Z,54.29
2019-05-12T21:48:31.111Z,54.15
2019-05-12T21:51:20.099Z,54.25
2019-05-12T21:54:07.453Z,54.55
2019-05-12T21:56:54.918Z,54.53
2019-05-12T21:59:42.677Z,54.27
2019-05-12T22:02:30.896Z,54.69
2019-05-12T22:05:23.704Z,55.00
2019-05-12T22:08:17.650Z,54.67
2019-05-12T22:11:00.962Z,54.95
2019-05-12T22:13:55.857Z,54.91
2019-05-12T22:16:46.119Z,55.56
2019-05-12T22:19:31.316Z,55.09
2019-05-12T22:22:19.604Z,55.21
2019-05-12T22:25:09.718Z,54.74
2019-05-12T22:27:59.301Z,55.35
2019-05-12T22:30:46.749Z,54.45
2019-05-12T22:33:34.184Z,55.77
2019-05-12T22:36:26.041Z,55.53
2019-05-12T22:39:10.577Z,56.11
2019-05-12T22:41:57.842Z,55.54
2019-05-12T22:44:45.175Z,55.39
2019-05-12T22:47:33.488Z,55.88
2019-05-12T22:50:21.807Z,55.64
2019-05-12T22:53:09.112Z,56.06
2019-05-12T22:55:56.236Z,56.21
2019-05-12T22:58:44.408Z,57.29
2019-05-12T23:01:32.921Z,56.26
2019-05-12T23:04:25.907Z,56.52
2019-05-12T23:07:09.838Z,56.34
2019-05-12T23:10:00.550Z,56.95
2019-05-12T23:12:50.185Z,57.42
2019-05-12T23:15:38.871Z,57.43
2019-05-12T23:18:30.598Z,57.55
2019-05-12T23:21:17.462Z,57.28
2019-05-12T23:24:06.163Z,57.50
2019-05-12T23:26:54.361Z,57.55
2019-05-12T23:29:44.399Z,57.83
2019-05-12T23:32:31.616Z,58.52
2019-05-12T23:35:19.435Z,59.15
2019-05-12T23:38:10.448Z,58.83
2019-05-12T23:40:56.690Z,58.80
2019-05-12T23:43:45.542Z,59.10
2019-05-12T23:46:34.267Z,58.99
2019-05-12T23:49:21.779Z,58.90
2019-05-12T23:52:09.428Z,59.21
2019-05-12T23:54:56.864Z,59.40
2019-05-12T23:57:44.664Z,59.77
